Station History

Weather Underground - logo

Station Historical Data
Daily Summary for October 10, 2018 Units:  English    Metric   Both
« Previous Day
Next Day »
Daily Weekly Monthly Yearly Custom
  High: Low: Average:
Temperature: 77 °F 53.9 °F 64.1 °F
Dew Point: 57.5 °F 47.8 °F 52.3 °F
Humidity: 83 % 45 % 67 %
Wind Speed: 10.4 mph 0 mph 1.2 mph
Wind Gust: 4.7 mph - -
Wind:- - South
Pressure: 29.80 in 29.70 in -
Precipitation: 0 in    
Historical Graphs
 
 
Tabular Data for October 10, 2018
Time Temperature Dew Point Pressure Wind Wind Speed Wind Gust Humidity Rainfall Rate (Hourly)
00:04 57.8 °F 49.9 °F 29.75 in Calm     75 % 0 in
00:09 57.6 °F 49.4 °F 29.75 in Calm     74 % 0 in
00:14 57.5 °F 49.3 °F 29.74 in Calm     74 % 0 in
00:19 57.3 °F 49.4 °F 29.75 in Calm     75 % 0 in
00:24 57 °F 49.2 °F 29.75 in Calm     75 % 0 in
00:29 56.7 °F 48.9 °F 29.75 in Calm     75 % 0 in
00:34 56.7 °F 48.9 °F 29.75 in Calm     75 % 0 in
00:39 56.6 °F 48.8 °F 29.75 in Calm     75 % 0 in
00:44 56.6 °F 48.8 °F 29.75 in Calm     75 % 0 in
00:49 56.5 °F 48.7 °F 29.75 in Calm     75 % 0 in
00:54 56.3 °F 49.2 °F 29.75 in Calm     77 % 0 in
00:59 55.8 °F 49 °F 29.75 in Calm     78 % 0 in
01:04 55.4 °F 49 °F 29.75 in Calm     79 % 0 in
01:09 55.3 °F 49.2 °F 29.75 in Calm     80 % 0 in
01:14 55.3 °F 48.6 °F 29.75 in Calm     78 % 0 in
01:19 55.3 °F 48.9 °F 29.75 in Calm     79 % 0 in
01:24 55.2 °F 48.5 °F 29.75 in SE 1.2 mph   78 % 0 in
01:29 55.3 °F 48.6 °F 29.75 in SE 1.2 mph   78 % 0 in
01:34 55.3 °F 48.2 °F 29.75 in Calm     77 % 0 in
01:39 55.4 °F 48.7 °F 29.75 in Calm     78 % 0 in
01:44 55.3 °F 48.6 °F 29.75 in ESE 1.2 mph 0.1 mph 78 % 0 in
01:49 55.4 °F 48.3 °F 29.75 in Calm     77 % 0 in
01:54 55.9 °F 48.4 °F 29.75 in Calm   0.3 mph 76 % 0 in
01:59 56.1 °F 48.6 °F 29.75 in Calm     76 % 0 in
02:04 56.2 °F 48.4 °F 29.75 in Calm     75 % 0 in
02:09 56.2 °F 48 °F 29.75 in ESE 1.2 mph   74 % 0 in
02:15 56.3 °F 47.8 °F 29.75 in Calm     73 % 0 in
02:19 56.3 °F 48.1 °F 29.75 in Calm     74 % 0 in
02:24 56.3 °F 48.1 °F 29.75 in Calm     74 % 0 in
02:29 56.6 °F 48.4 °F 29.75 in ESE 1.2 mph 0.1 mph 74 % 0 in
02:34 57 °F 48.4 °F 29.75 in ESE 1.2 mph   73 % 0 in
02:39 57.2 °F 48.6 °F 29.75 in Calm     73 % 0 in
02:44 57.3 °F 48.7 °F 29.75 in Calm     73 % 0 in
02:49 57.4 °F 48.8 °F 29.75 in ESE 1.2 mph   73 % 0 in
02:54 57.6 °F 49 °F 29.74 in East 1.2 mph   73 % 0 in
02:59 57.8 °F 49.2 °F 29.74 in Calm     73 % 0 in
03:04 57.8 °F 49.2 °F 29.74 in East 1.2 mph 0.1 mph 73 % 0 in
03:09 57.9 °F 49.3 °F 29.74 in ENE 1.2 mph 0.1 mph 73 % 0 in
03:14 58.2 °F 49.2 °F 29.74 in Calm   0.1 mph 72 % 0 in
03:19 58.3 °F 49.3 °F 29.74 in Calm     72 % 0 in
03:24 58.2 °F 49.6 °F 29.74 in East 1.2 mph   73 % 0 in
03:29 58 °F 49.4 °F 29.73 in Calm     73 % 0 in
03:34 57.6 °F 49.7 °F 29.73 in Calm     75 % 0 in
03:39 56.9 °F 49.1 °F 29.73 in Calm     75 % 0 in
03:45 56.6 °F 50.2 °F 29.73 in Calm     79 % 0 in
03:49 56.3 °F 50.9 °F 29.73 in Calm     82 % 0 in
03:54 55.5 °F 49.1 °F 29.73 in Calm     79 % 0 in
03:59 55.2 °F 48.8 °F 29.74 in Calm     79 % 0 in
04:04 55.2 °F 49.1 °F 29.74 in Calm     80 % 0 in
04:10 55.2 °F 48.8 °F 29.74 in Calm     79 % 0 in
04:14 55.1 °F 48.7 °F 29.74 in Calm     79 % 0 in
04:19 55.3 °F 48.9 °F 29.73 in Calm     79 % 0 in
04:24 55.1 °F 49 °F 29.73 in ESE 1.2 mph   80 % 0 in
04:29 54.9 °F 48.8 °F 29.73 in Calm     80 % 0 in
04:34 54.8 °F 48.7 °F 29.74 in SE 1 mph   80 % 0 in
04:39 54.7 °F 48.6 °F 29.74 in South 1.2 mph   80 % 0 in
04:44 54.5 °F 48.5 °F 29.74 in Calm     80 % 0 in
04:50 54.2 °F 48.2 °F 29.74 in Calm     80 % 0 in
04:54 54.1 °F 48.4 °F 29.74 in Calm     81 % 0 in
04:59 54.2 °F 48.2 °F 29.74 in Calm     80 % 0 in
05:05 54.2 °F 48.2 °F 29.74 in SE 1.2 mph 0.1 mph 80 % 0 in
05:09 54.2 °F 48.2 °F 29.74 in ESE 1.2 mph 0.1 mph 80 % 0 in
05:14 54.1 °F 48.1 °F 29.74 in SE 1.2 mph   80 % 0 in
05:19 54 °F 48 °F 29.74 in Calm     80 % 0 in
05:24 53.9 °F 47.9 °F 29.74 in Calm     80 % 0 in
05:29 54 °F 48 °F 29.75 in SE 1.2 mph   80 % 0 in
05:34 54.2 °F 48.2 °F 29.75 in SE 1.2 mph   80 % 0 in
05:39 54.2 °F 48.2 °F 29.75 in Calm     80 % 0 in
05:44 54.2 °F 48.2 °F 29.75 in Calm     80 % 0 in
05:49 54.5 °F 48.8 °F 29.75 in Calm   0.2 mph 81 % 0 in
05:54 54.8 °F 48.7 °F 29.75 in Calm     80 % 0 in
05:59 54.9 °F 48.5 °F 29.75 in Calm     79 % 0 in
06:04 55 °F 48.6 °F 29.75 in ESE 1.2 mph   79 % 0 in
06:09 55.3 °F 48.9 °F 29.75 in Calm     79 % 0 in
06:14 55.5 °F 48.8 °F 29.76 in Calm     78 % 0 in
06:19 55.6 °F 48.8 °F 29.76 in Calm     78 % 0 in
06:24 55.4 °F 49.7 °F 29.76 in Calm     81 % 0 in
06:29 55 °F 49.3 °F 29.76 in Calm     81 % 0 in
06:34 54.8 °F 49.1 °F 29.76 in Calm     81 % 0 in
06:39 54.7 °F 49 °F 29.76 in Calm     81 % 0 in
06:44 54.6 °F 48.9 °F 29.77 in Calm     81 % 0 in
06:49 54.5 °F 48.5 °F 29.76 in Calm     80 % 0 in
06:55 54.5 °F 48.8 °F 29.77 in Calm     81 % 0 in
06:59 54.6 °F 48.6 °F 29.77 in Calm     80 % 0 in
07:04 54.8 °F 48.4 °F 29.77 in Calm     79 % 0 in
07:09 54.7 °F 48.3 °F 29.77 in Calm     79 % 0 in
07:14 54.6 °F 48.2 °F 29.77 in Calm     79 % 0 in
07:19 54.6 °F 48.2 °F 29.77 in ESE 1.2 mph   79 % 0 in
07:24 54.5 °F 48.5 °F 29.77 in Calm     80 % 0 in
07:29 54.5 °F 48.5 °F 29.77 in Calm     80 % 0 in
07:35 54.6 °F 48.6 °F 29.78 in ENE 1.2 mph 0.3 mph 80 % 0 in
07:39 54.7 °F 48.6 °F 29.78 in ESE 1.2 mph 0.1 mph 80 % 0 in
07:44 55.1 °F 49 °F 29.78 in NE 1.2 mph 0.1 mph 80 % 0 in
07:49 55.5 °F 49.4 °F 29.78 in SSE 1.2 mph   80 % 0 in
07:54 56.2 °F 49.4 °F 29.78 in East 1.2 mph 0.1 mph 78 % 0 in
07:59 56.8 °F 49.7 °F 29.78 in SE 1.2 mph   77 % 0 in
08:04 57.5 °F 50 °F 29.78 in SSW 2.3 mph 0.1 mph 76 % 0 in
08:09 58.6 °F 50.7 °F 29.79 in SE 1.2 mph   75 % 0 in
08:14 59.8 °F 51.1 °F 29.79 in SE 5.8 mph 0.2 mph 73 % 0 in
08:19 60.7 °F 51.2 °F 29.79 in East 3.5 mph 1 mph 71 % 0 in
08:24 61.6 °F 51.7 °F 29.79 in ENE 4 mph 0.8 mph 70 % 0 in
08:29 62.4 °F 51.7 °F 29.79 in ENE 4.6 mph 0.2 mph 68 % 0 in
08:34 63 °F 52.3 °F 29.79 in East 2.3 mph 0.9 mph 68 % 0 in
08:39 63.7 °F 52.5 °F 29.79 in Calm   1.2 mph 67 % 0 in
08:44 64.4 °F 52.8 °F 29.79 in ESE 5.8 mph 2.6 mph 66 % 0 in
08:49 64.8 °F 52.8 °F 29.79 in SSW 3.5 mph 2.2 mph 65 % 0 in
08:54 64.9 °F 52.8 °F 29.79 in SE 3.5 mph 1 mph 65 % 0 in
08:59 65.2 °F 53.1 °F 29.79 in SE 2 mph 0.5 mph 65 % 0 in
09:04 65.6 °F 53.5 °F 29.79 in SSE 3 mph 1.5 mph 65 % 0 in
09:09 65.9 °F 53.4 °F 29.79 in SE 5.8 mph 2.5 mph 64 % 0 in
09:14 66.3 °F 53.8 °F 29.79 in SSE 3.5 mph 0.2 mph 64 % 0 in
09:19 66.8 °F 53.4 °F 29.80 in SSW 5.8 mph 3.3 mph 62 % 0 in
09:24 66.9 °F 53.9 °F 29.80 in North 3.5 mph 0.3 mph 63 % 0 in
09:29 66.9 °F 53 °F 29.80 in SSE 5.8 mph 3.2 mph 61 % 0 in
09:34 66.9 °F 53.5 °F 29.80 in NE 4.6 mph 2.8 mph 62 % 0 in
09:39 67 °F 53.5 °F 29.80 in South 10.4 mph 0.9 mph 62 % 0 in
09:44 67.1 °F 52.7 °F 29.80 in SSE 9.2 mph 4.7 mph 60 % 0 in
09:49 66.9 °F 53 °F 29.80 in SSE 4.6 mph 1.8 mph 61 % 0 in
09:54 66.8 °F 52.9 °F 29.80 in ENE 8.1 mph 2.2 mph 61 % 0 in
09:59 67.1 °F 53.2 °F 29.80 in SW 3.5 mph 1.2 mph 61 % 0 in
10:04 67.5 °F 53.6 °F 29.80 in SSE 6.9 mph 2.4 mph 61 % 0 in
10:09 68 °F 54 °F 29.80 in ESE 6.9 mph 2.7 mph 61 % 0 in
10:14 68.3 °F 54.3 °F 29.80 in South 3.5 mph 1.2 mph 61 % 0 in
10:19 68.6 °F 54.6 °F 29.80 in East 3.5 mph 2.2 mph 61 % 0 in
10:24 68.8 °F 54.3 °F 29.80 in SSW 4.6 mph 1.8 mph 60 % 0 in
10:29 68.9 °F 54.4 °F 29.80 in SSE 2.3 mph 1.6 mph 60 % 0 in
10:34 69 °F 54.1 °F 29.80 in SSE 8.1 mph 1.4 mph 59 % 0 in
10:39 68.9 °F 54.4 °F 29.80 in WNW 2.3 mph 0.5 mph 60 % 0 in
10:44 69 °F 55 °F 29.80 in South 3.5 mph 0.3 mph 61 % 0 in
10:49 69.1 °F 55.1 °F 29.80 in South 2.3 mph 0.2 mph 61 % 0 in
10:54 69.4 °F 54.4 °F 29.80 in NE 2.3 mph 1.9 mph 59 % 0 in
10:59 69.7 °F 54.7 °F 29.80 in South 3.5 mph 0.4 mph 59 % 0 in
11:04 69.5 °F 54.5 °F 29.80 in South 3.5 mph 0.9 mph 59 % 0 in
11:09 69.9 °F 54.4 °F 29.80 in Calm   0.3 mph 58 % 0 in
11:14 70.2 °F 55.7 °F 29.80 in SSE 2.3 mph 0.6 mph 60 % 0 in
11:19 70.3 °F 55.3 °F 29.80 in SSE 2.3 mph 1.6 mph 59 % 0 in
11:24 70.3 °F 55.8 °F 29.80 in South 2.3 mph 0.9 mph 60 % 0 in
11:29 70.6 °F 56 °F 29.80 in South 3.5 mph   60 % 0 in
11:34 70.9 °F 54.9 °F 29.79 in NNW 1.2 mph 0.5 mph 57 % 0 in
11:39 70.4 °F 55.8 °F 29.79 in Calm   0.2 mph 60 % 0 in
11:44 70.9 °F 56.3 °F 29.79 in South 1.2 mph 0.6 mph 60 % 0 in
11:49 71.7 °F 56.6 °F 29.79 in Calm   0.1 mph 59 % 0 in
11:54 72 °F 55.9 °F 29.79 in NNW 3.5 mph 0.6 mph 57 % 0 in
11:59 72.2 °F 55.6 °F 29.79 in NNW 1.2 mph 1.4 mph 56 % 0 in
12:04 72.4 °F 55.3 °F 29.79 in WNW 2.3 mph 0.6 mph 55 % 0 in
12:10 72.7 °F 55.1 °F 29.79 in WNW 1.2 mph 0.3 mph 54 % 0 in
12:14 72.4 °F 54.8 °F 29.79 in WNW 2.3 mph 0.6 mph 54 % 0 in
12:19 72.9 °F 56.3 °F 29.79 in North 2 mph 0.3 mph 56 % 0 in
12:24 73.5 °F 55.3 °F 29.79 in NNE 2.3 mph 0.3 mph 53 % 0 in
12:29 73.9 °F 56.2 °F 29.78 in Calm     54 % 0 in
12:34 74.3 °F 55.5 °F 29.78 in West 3.5 mph   52 % 0 in
12:39 74.1 °F 54.8 °F 29.78 in NW 3 mph 1.4 mph 51 % 0 in
12:44 73.6 °F 55.4 °F 29.77 in NNW 1.2 mph 0.7 mph 53 % 0 in
12:49 73.8 °F 54.5 °F 29.77 in NNW 1.2 mph   51 % 0 in
12:54 74 °F 55.3 °F 29.77 in West 2.3 mph 0.9 mph 52 % 0 in
12:59 74 °F 55.3 °F 29.77 in NW 1.2 mph 0.2 mph 52 % 0 in
13:04 74.4 °F 55.1 °F 29.76 in West 2 mph 1.4 mph 51 % 0 in
13:09 74.4 °F 55.1 °F 29.76 in NNE 1.2 mph   51 % 0 in
13:15 74.7 °F 54.8 °F 29.76 in NW 1.2 mph 0.6 mph 50 % 0 in
13:19 74.8 °F 54.9 °F 29.76 in NNW 3.5 mph 1.1 mph 50 % 0 in
13:24 75.3 °F 55.9 °F 29.76 in ENE 2.3 mph 1.1 mph 51 % 0 in
13:29 75.3 °F 55.4 °F 29.75 in West 2 mph 0.6 mph 50 % 0 in
13:34 75.5 °F 56.6 °F 29.75 in SE 1.2 mph   52 % 0 in
13:39 75.7 °F 55.2 °F 29.75 in NW 3.5 mph 1.2 mph 49 % 0 in
13:44 75.4 °F 55.5 °F 29.75 in East 1.2 mph 1.2 mph 50 % 0 in
13:49 75.9 °F 57.5 °F 29.75 in Calm     53 % 0 in
13:54 76.2 °F 55.6 °F 29.74 in ENE 1.2 mph 0.1 mph 49 % 0 in
13:59 76.3 °F 54.6 °F 29.74 in West 2 mph 1.6 mph 47 % 0 in
14:04 75.9 °F 55.9 °F 29.74 in Calm     50 % 0 in
14:09 76.4 °F 56.9 °F 29.74 in ENE 1.2 mph   51 % 0 in
14:14 76.9 °F 56.3 °F 29.74 in SE 2.3 mph 0.3 mph 49 % 0 in
14:19 76.8 °F 55.6 °F 29.73 in NW 2.3 mph 0.7 mph 48 % 0 in
14:24 76.4 °F 55.3 °F 29.73 in West 1.2 mph 0.2 mph 48 % 0 in
14:29 76.5 °F 55.3 °F 29.73 in NW 1 mph 0.3 mph 48 % 0 in
14:34 76.8 °F 55 °F 29.73 in NW 2.3 mph 0.4 mph 47 % 0 in
14:39 76.9 °F 55.7 °F 29.72 in NW 1.2 mph 0.1 mph 48 % 0 in
14:44 77 °F 54.6 °F 29.72 in North 2.3 mph 0.7 mph 46 % 0 in
14:49 77 °F 54 °F 29.72 in NNW 1.2 mph 0.2 mph 45 % 0 in
14:54 77 °F 55.2 °F 29.72 in NW 1.2 mph   47 % 0 in
14:59 76.9 °F 54.5 °F 29.72 in NW 3.5 mph 0.6 mph 46 % 0 in
15:04 76.4 °F 54.1 °F 29.72 in Calm     46 % 0 in
15:09 76.4 °F 55.8 °F 29.71 in WNW 1.2 mph 0.2 mph 49 % 0 in
15:14 76.6 °F 54.9 °F 29.71 in WNW 1.2 mph   47 % 0 in
15:19 76.4 °F 54.7 °F 29.71 in NNW 3.5 mph 0.4 mph 47 % 0 in
15:24 76.6 °F 55.4 °F 29.72 in NW 1.2 mph   48 % 0 in
15:29 76.4 °F 54.1 °F 29.72 in NW 1.2 mph   46 % 0 in
15:34 76.6 °F 54.9 °F 29.71 in Calm     47 % 0 in
15:39 76.8 °F 54.5 °F 29.71 in West 2.3 mph 0.2 mph 46 % 0 in
15:44 76.5 °F 55.3 °F 29.72 in NW 3.5 mph 0.4 mph 48 % 0 in
15:49 76.4 °F 54.7 °F 29.72 in NNE 1.2 mph 0.1 mph 47 % 0 in
15:54 76.2 °F 54.5 °F 29.71 in NW 2 mph 1.2 mph 47 % 0 in
15:59 76.1 °F 54.4 °F 29.71 in Calm     47 % 0 in
16:04 75.9 °F 54.8 °F 29.71 in WNW 2.3 mph 0.9 mph 48 % 0 in
16:09 75.9 °F 54.2 °F 29.71 in NNW 1.2 mph 0.7 mph 47 % 0 in
16:14 75.7 °F 53.4 °F 29.71 in WSW 2.3 mph 0.5 mph 46 % 0 in
16:19 75.5 °F 53.3 °F 29.71 in ENE 1.2 mph 0.7 mph 46 % 0 in
16:24 75.4 °F 54.3 °F 29.71 in ESE 2.3 mph 0.1 mph 48 % 0 in
16:29 75.5 °F 54.4 °F 29.70 in Calm   0.2 mph 48 % 0 in
16:34 75.6 °F 53.9 °F 29.71 in Calm   0.3 mph 47 % 0 in
16:39 75.5 °F 54.4 °F 29.71 in North 1 mph 0.4 mph 48 % 0 in
16:44 75.3 °F 54.8 °F 29.70 in WSW 2 mph 0.2 mph 49 % 0 in
16:49 75.3 °F 55.4 °F 29.70 in WSW 1.2 mph   50 % 0 in
16:54 75.2 °F 55.3 °F 29.70 in Calm     50 % 0 in
16:59 75.1 °F 55.2 °F 29.70 in Calm     50 % 0 in
17:04 75 °F 54.5 °F 29.70 in Calm     49 % 0 in
17:09 74.9 °F 55 °F 29.70 in West 1.2 mph   50 % 0 in
17:14 74.8 °F 54.9 °F 29.70 in West 1.2 mph   50 % 0 in
17:19 74.7 °F 54.8 °F 29.70 in Calm     50 % 0 in
17:24 74.6 °F 54.7 °F 29.70 in WNW 1.2 mph   50 % 0 in
17:29 74.4 °F 55.1 °F 29.70 in Calm     51 % 0 in
17:34 74.1 °F 54.8 °F 29.70 in Calm     51 % 0 in
17:39 73.9 °F 55.7 °F 29.70 in Calm     53 % 0 in
17:44 73.5 °F 55.3 °F 29.70 in Calm     53 % 0 in
17:49 73.2 °F 55.6 °F 29.70 in Calm     54 % 0 in
17:54 72.9 °F 55.3 °F 29.70 in Calm     54 % 0 in
17:59 72.6 °F 56 °F 29.70 in Calm     56 % 0 in
18:04 72.1 °F 56.5 °F 29.70 in Calm     58 % 0 in
18:09 71.6 °F 56.5 °F 29.70 in Calm     59 % 0 in
18:14 71.1 °F 55.6 °F 29.70 in Calm     58 % 0 in
18:19 70.6 °F 56 °F 29.70 in Calm     60 % 0 in
18:24 70.1 °F 55.6 °F 29.70 in Calm     60 % 0 in
18:29 69.7 °F 56.1 °F 29.70 in Calm     62 % 0 in
18:34 69.2 °F 56.1 °F 29.70 in Calm     63 % 0 in
18:39 68.8 °F 56.6 °F 29.70 in Calm     65 % 0 in
18:44 68.3 °F 56.5 °F 29.70 in Calm     66 % 0 in
18:49 67.9 °F 56.5 °F 29.71 in Calm     67 % 0 in
18:54 67.5 °F 56.2 °F 29.71 in Calm     67 % 0 in
18:59 67.4 °F 56.5 °F 29.71 in Calm     68 % 0 in
19:04 67.2 °F 55.5 °F 29.72 in SW 1.2 mph 0.1 mph 66 % 0 in
19:09 67.2 °F 55 °F 29.72 in West 2 mph 0.1 mph 65 % 0 in
19:14 67.1 °F 54.9 °F 29.72 in Calm     65 % 0 in
19:19 66.9 °F 54.7 °F 29.72 in East 1.2 mph   65 % 0 in
19:24 66.6 °F 54.5 °F 29.72 in Calm     65 % 0 in
19:29 66.2 °F 54.1 °F 29.73 in Calm     65 % 0 in
19:34 65.8 °F 54.1 °F 29.73 in SW 2.3 mph   66 % 0 in
19:39 65.5 °F 54.2 °F 29.73 in Calm     67 % 0 in
19:44 65 °F 54.2 °F 29.73 in Calm     68 % 0 in
19:49 64.6 °F 53.8 °F 29.74 in Calm     68 % 0 in
19:54 64.4 °F 53.6 °F 29.74 in Calm     68 % 0 in
19:59 64.1 °F 53.3 °F 29.74 in Calm     68 % 0 in
20:04 63.8 °F 53.4 °F 29.74 in Calm     69 % 0 in
20:09 63.5 °F 54.3 °F 29.75 in SE 1.2 mph   72 % 0 in
20:14 63.1 °F 54.7 °F 29.75 in Calm     74 % 0 in
20:19 62.7 °F 54.7 °F 29.75 in Calm     75 % 0 in
20:24 62.3 °F 53.5 °F 29.75 in Calm     73 % 0 in
20:29 62.1 °F 53.3 °F 29.75 in Calm     73 % 0 in
20:34 61.9 °F 53.5 °F 29.75 in Calm     74 % 0 in
20:39 61.7 °F 53.7 °F 29.75 in Calm   0.1 mph 75 % 0 in
20:44 61.3 °F 53.7 °F 29.75 in SSE 1.2 mph 0.3 mph 76 % 0 in
20:49 61.1 °F 53.5 °F 29.76 in Calm     76 % 0 in
20:54 61.1 °F 53.8 °F 29.76 in Calm     77 % 0 in
20:59 61 °F 53.7 °F 29.76 in East 2 mph 0.2 mph 77 % 0 in
21:04 60.8 °F 53.2 °F 29.76 in SE 1.2 mph   76 % 0 in
21:09 60.6 °F 53.3 °F 29.76 in Calm   0.3 mph 77 % 0 in
21:14 60.4 °F 53.2 °F 29.77 in Calm     77 % 0 in
21:19 60.3 °F 52.7 °F 29.77 in Calm   0.2 mph 76 % 0 in
21:24 60.3 °F 52.3 °F 29.77 in SE 1.2 mph   75 % 0 in
21:29 60.4 °F 52.4 °F 29.77 in SE 1.2 mph   75 % 0 in
21:34 60.1 °F 52.5 °F 29.78 in SE 1.2 mph   76 % 0 in
21:39 59.9 °F 52.3 °F 29.78 in East 1.2 mph 0.2 mph 76 % 0 in
21:44 59.8 °F 52.2 °F 29.78 in ESE 1.2 mph   76 % 0 in
21:49 59.8 °F 52.2 °F 29.78 in ESE 1.2 mph 0.1 mph 76 % 0 in
21:54 59.7 °F 52.1 °F 29.78 in East 1.2 mph   76 % 0 in
21:59 59.5 °F 52.3 °F 29.78 in Calm   0.1 mph 77 % 0 in
22:04 59.3 °F 52.1 °F 29.78 in Calm     77 % 0 in
22:09 59.2 °F 52 °F 29.79 in Calm     77 % 0 in
22:14 59 °F 52.1 °F 29.79 in Calm     78 % 0 in
22:19 58.9 °F 52.1 °F 29.79 in Calm     78 % 0 in
22:24 58.7 °F 51.9 °F 29.79 in Calm     78 % 0 in
22:29 58.5 °F 52 °F 29.79 in Calm     79 % 0 in
22:34 58.3 °F 51.8 °F 29.79 in Calm     79 % 0 in
22:39 58 °F 51.9 °F 29.79 in Calm     80 % 0 in
22:44 57.8 °F 51.7 °F 29.79 in Calm     80 % 0 in
22:49 57.7 °F 51.6 °F 29.79 in Calm     80 % 0 in
22:54 57.6 °F 51.8 °F 29.79 in Calm     81 % 0 in
22:59 57.6 °F 51.5 °F 29.80 in Calm     80 % 0 in
23:04 57.7 °F 51.6 °F 29.80 in Calm     80 % 0 in
23:09 57.8 °F 51.7 °F 29.80 in ESE 1 mph 0.1 mph 80 % 0 in
23:14 57.9 °F 51.8 °F 29.80 in SE 1.2 mph   80 % 0 in
23:19 57.7 °F 51.6 °F 29.80 in Calm     80 % 0 in
23:24 57.5 °F 51.7 °F 29.80 in Calm     81 % 0 in
23:29 57.3 °F 51.5 °F 29.80 in Calm     81 % 0 in
23:34 57.2 °F 51.4 °F 29.80 in SE 1.2 mph 0.1 mph 81 % 0 in
23:39 56.9 °F 51.5 °F 29.80 in ESE 1.2 mph   82 % 0 in
23:44 56.8 °F 51.4 °F 29.79 in SSE 1.2 mph 0.1 mph 82 % 0 in
23:49 56.7 °F 51.3 °F 29.79 in Calm     82 % 0 in
23:54 56.5 °F 51.4 °F 29.79 in Calm     83 % 0 in
23:59 56.6 °F 51.2 °F 29.79 in Calm     82 % 0 in
Park Place, Exeter, Tulare County, California, USA
Compliments of Weather Underground - 2.75 mb